Gholson, Texas
Current Conditions -  °F | °C
As of 9:53 PM on Saturday 22 Nov 2014 (Local Time) from KCNW Reporting Station
Light Rain Light Rain  
Wind Chill: 59°   Ceiling: 2300
Heat Index: 59°   Visibility: 10mi
Dew Point: 57°   Wind: 7mph
Humidity: 94%   Direction: 350°N
Pressure: 29.83"   Gusts: NA
Location:  31.6031°N, 97.0805°W
Report Text: KCNW 230353Z 35006KT 10SM -RA BKN023 OVC033 15/14 A2983
Loading
Personal Weather Stations






























Interactive Weather Map New forecast layout! Learn more

10-Day Weather Forecast

Advertisements
Track Severe Weather on mobile